sensor_id;sensor_type;location;lat;lon;timestamp;temperature;humidity
38325;DHT22;24126;52.672;13.622;2023-04-16T00:02:07;15.10;82.00
38325;DHT22;24126;52.672;13.622;2023-04-16T00:04:34;15.10;81.90
38325;DHT22;24126;52.672;13.622;2023-04-16T00:07:01;15.10;82.00
38325;DHT22;24126;52.672;13.622;2023-04-16T00:09:28;15.10;81.90
38325;DHT22;24126;52.672;13.622;2023-04-16T00:11:55;15.10;81.80
38325;DHT22;24126;52.672;13.622;2023-04-16T00:14:22;15.10;81.90
38325;DHT22;24126;52.672;13.622;2023-04-16T00:16:49;15.10;81.90
38325;DHT22;24126;52.672;13.622;2023-04-16T00:19:16;15.10;82.60
38325;DHT22;24126;52.672;13.622;2023-04-16T00:21:43;15.10;81.90
38325;DHT22;24126;52.672;13.622;2023-04-16T00:24:10;15.10;82.00
38325;DHT22;24126;52.672;13.622;2023-04-16T00:26:37;15.10;81.90
38325;DHT22;24126;52.672;13.622;2023-04-16T00:29:05;15.10;82.00
38325;DHT22;24126;52.672;13.622;2023-04-16T00:31:32;15.10;82.00
38325;DHT22;24126;52.672;13.622;2023-04-16T00:34:01;15.10;82.00
38325;DHT22;24126;52.672;13.622;2023-04-16T00:36:28;15.10;81.90
38325;DHT22;24126;52.672;13.622;2023-04-16T00:38:55;15.10;82.10
38325;DHT22;24126;52.672;13.622;2023-04-16T00:41:22;15.10;81.90
38325;DHT22;24126;52.672;13.622;2023-04-16T00:43:49;15.10;81.80
38325;DHT22;24126;52.672;13.622;2023-04-16T00:46:20;15.10;81.80
38325;DHT22;24126;52.672;13.622;2023-04-16T00:48:48;15.10;81.80
38325;DHT22;24126;52.672;13.622;2023-04-16T00:51:17;15.10;81.80
38325;DHT22;24126;52.672;13.622;2023-04-16T00:53:45;15.10;81.90
38325;DHT22;24126;52.672;13.622;2023-04-16T00:56:12;15.10;81.90
38325;DHT22;24126;52.672;13.622;2023-04-16T00:58:39;15.10;82.00
38325;DHT22;24126;52.672;13.622;2023-04-16T01:01:06;15.10;81.90
38325;DHT22;24126;52.672;13.622;2023-04-16T01:03:37;15.10;81.80
38325;DHT22;24126;52.672;13.622;2023-04-16T01:06:05;15.10;81.90
38325;DHT22;24126;52.672;13.622;2023-04-16T01:08:32;15.10;81.90
38325;DHT22;24126;52.672;13.622;2023-04-16T01:11:00;15.10;81.90
38325;DHT22;24126;52.672;13.622;2023-04-16T01:13:27;15.00;81.90
38325;DHT22;24126;52.672;13.622;2023-04-16T01:15:54;15.00;81.90
38325;DHT22;24126;52.672;13.622;2023-04-16T01:18:21;15.00;81.90
38325;DHT22;24126;52.672;13.622;2023-04-16T01:20:49;15.00;81.90
38325;DHT22;24126;52.672;13.622;2023-04-16T01:23:17;15.00;81.90
38325;DHT22;24126;52.672;13.622;2023-04-16T01:25:44;15.00;81.90
38325;DHT22;24126;52.672;13.622;2023-04-16T01:28:12;15.00;82.00
38325;DHT22;24126;52.672;13.622;2023-04-16T01:30:39;15.00;82.00
38325;DHT22;24126;52.672;13.622;2023-04-16T01:33:14;15.00;82.00
38325;DHT22;24126;52.672;13.622;2023-04-16T01:35:42;15.00;81.90
38325;DHT22;24126;52.672;13.622;2023-04-16T01:38:10;15.00;82.00
38325;DHT22;24126;52.672;13.622;2023-04-16T01:40:37;15.00;82.00
38325;DHT22;24126;52.672;13.622;2023-04-16T01:43:04;15.00;82.00
38325;DHT22;24126;52.672;13.622;2023-04-16T01:45:31;15.00;82.10
38325;DHT22;24126;52.672;13.622;2023-04-16T01:47:59;15.00;82.00
38325;DHT22;24126;52.672;13.622;2023-04-16T01:50:26;15.00;82.00
38325;DHT22;24126;52.672;13.622;2023-04-16T01:52:54;15.00;81.90
38325;DHT22;24126;52.672;13.622;2023-04-16T01:55:21;15.00;82.00
38325;DHT22;24126;52.672;13.622;2023-04-16T01:57:48;15.00;81.90
38325;DHT22;24126;52.672;13.622;2023-04-16T02:00:15;15.00;81.90
38325;DHT22;24126;52.672;13.622;2023-04-16T02:02:45;15.00;81.90
38325;DHT22;24126;52.672;13.622;2023-04-16T02:05:17;15.00;81.90
38325;DHT22;24126;52.672;13.622;2023-04-16T02:07:46;15.00;81.90
38325;DHT22;24126;52.672;13.622;2023-04-16T02:10:13;15.00;81.90
38325;DHT22;24126;52.672;13.622;2023-04-16T02:12:40;15.00;81.90
38325;DHT22;24126;52.672;13.622;2023-04-16T02:15:07;15.00;81.80
38325;DHT22;24126;52.672;13.622;2023-04-16T02:17:34;14.90;81.80
38325;DHT22;24126;52.672;13.622;2023-04-16T02:20:08;14.90;81.80
38325;DHT22;24126;52.672;13.622;2023-04-16T02:22:40;14.90;81.80
38325;DHT22;24126;52.672;13.622;2023-04-16T02:25:08;14.90;81.80
38325;DHT22;24126;52.672;13.622;2023-04-16T02:27:35;14.90;81.80
38325;DHT22;24126;52.672;13.622;2023-04-16T02:30:18;14.90;81.80
38325;DHT22;24126;52.672;13.622;2023-04-16T02:32:45;14.90;81.80
38325;DHT22;24126;52.672;13.622;2023-04-16T02:35:13;14.80;81.70
38325;DHT22;24126;52.672;13.622;2023-04-16T02:37:40;14.80;81.80
38325;DHT22;24126;52.672;13.622;2023-04-16T02:40:07;14.80;81.80
38325;DHT22;24126;52.672;13.622;2023-04-16T02:42:34;14.80;81.60
38325;DHT22;24126;52.672;13.622;2023-04-16T02:45:01;14.80;81.60
38325;DHT22;24126;52.672;13.622;2023-04-16T02:47:29;14.70;81.60
38325;DHT22;24126;52.672;13.622;2023-04-16T02:49:57;14.70;81.70
38325;DHT22;24126;52.672;13.622;2023-04-16T02:52:24;14.70;81.70
38325;DHT22;24126;52.672;13.622;2023-04-16T02:54:51;14.70;81.70
38325;DHT22;24126;52.672;13.622;2023-04-16T02:57:18;14.60;81.70
38325;DHT22;24126;52.672;13.622;2023-04-16T02:59:45;14.60;81.70
38325;DHT22;24126;52.672;13.622;2023-04-16T03:02:12;14.60;81.70
38325;DHT22;24126;52.672;13.622;2023-04-16T03:04:39;14.60;81.70
38325;DHT22;24126;52.672;13.622;2023-04-16T03:07:06;14.60;81.80
38325;DHT22;24126;52.672;13.622;2023-04-16T03:09:34;14.60;81.80
38325;DHT22;24126;52.672;13.622;2023-04-16T03:12:01;14.60;81.80
38325;DHT22;24126;52.672;13.622;2023-04-16T03:14:28;14.50;81.70
38325;DHT22;24126;52.672;13.622;2023-04-16T03:16:56;14.50;81.70
38325;DHT22;24126;52.672;13.622;2023-04-16T03:19:23;14.50;81.70
38325;DHT22;24126;52.672;13.622;2023-04-16T03:21:51;14.50;81.70
38325;DHT22;24126;52.672;13.622;2023-04-16T03:24:18;14.50;81.80
38325;DHT22;24126;52.672;13.622;2023-04-16T03:26:48;14.50;81.70
38325;DHT22;24126;52.672;13.622;2023-04-16T03:29:15;14.50;81.70
38325;DHT22;24126;52.672;13.622;2023-04-16T03:31:43;14.50;81.80
38325;DHT22;24126;52.672;13.622;2023-04-16T03:34:10;14.40;81.70
38325;DHT22;24126;52.672;13.622;2023-04-16T03:36:38;14.40;81.80
38325;DHT22;24126;52.672;13.622;2023-04-16T03:39:06;14.40;81.80
38325;DHT22;24126;52.672;13.622;2023-04-16T03:41:33;14.40;81.90
38325;DHT22;24126;52.672;13.622;2023-04-16T03:44:01;14.40;81.80
38325;DHT22;24126;52.672;13.622;2023-04-16T03:46:29;14.40;81.90
38325;DHT22;24126;52.672;13.622;2023-04-16T03:48:56;14.40;81.90
38325;DHT22;24126;52.672;13.622;2023-04-16T03:51:23;14.40;81.90
38325;DHT22;24126;52.672;13.622;2023-04-16T03:53:51;14.40;81.90
38325;DHT22;24126;52.672;13.622;2023-04-16T03:56:18;14.40;82.40
38325;DHT22;24126;52.672;13.622;2023-04-16T03:58:45;14.40;81.90
38325;DHT22;24126;52.672;13.622;2023-04-16T04:01:12;14.30;81.80
38325;DHT22;24126;52.672;13.622;2023-04-16T04:03:40;14.40;81.80
38325;DHT22;24126;52.672;13.622;2023-04-16T04:06:07;14.40;81.80
38325;DHT22;24126;52.672;13.622;2023-04-16T04:08:34;14.40;81.80
38325;DHT22;24126;52.672;13.622;2023-04-16T04:11:03;14.30;81.70
38325;DHT22;24126;52.672;13.622;2023-04-16T04:13:31;14.30;81.80
38325;DHT22;24126;52.672;13.622;2023-04-16T04:15:59;14.30;81.90
38325;DHT22;24126;52.672;13.622;2023-04-16T04:18:27;14.30;81.90
38325;DHT22;24126;52.672;13.622;2023-04-16T04:20:54;14.30;82.60
38325;DHT22;24126;52.672;13.622;2023-04-16T04:23:25;14.30;81.90
38325;DHT22;24126;52.672;13.622;2023-04-16T04:25:52;14.30;81.90
38325;DHT22;24126;52.672;13.622;2023-04-16T04:28:19;14.30;81.90
38325;DHT22;24126;52.672;13.622;2023-04-16T04:30:47;14.30;81.80
38325;DHT22;24126;52.672;13.622;2023-04-16T04:33:14;14.30;81.90
38325;DHT22;24126;52.672;13.622;2023-04-16T04:35:41;14.30;81.90
38325;DHT22;24126;52.672;13.622;2023-04-16T04:38:08;14.30;81.90
38325;DHT22;24126;52.672;13.622;2023-04-16T04:40:36;14.30;82.30
38325;DHT22;24126;52.672;13.622;2023-04-16T04:43:04;14.30;81.90
38325;DHT22;24126;52.672;13.622;2023-04-16T04:45:31;14.30;81.90
38325;DHT22;24126;52.672;13.622;2023-04-16T04:47:58;14.30;81.90
38325;DHT22;24126;52.672;13.622;2023-04-16T04:50:25;14.30;81.90
38325;DHT22;24126;52.672;13.622;2023-04-16T04:52:52;14.30;81.90
38325;DHT22;24126;52.672;13.622;2023-04-16T04:55:20;14.30;81.90
38325;DHT22;24126;52.672;13.622;2023-04-16T04:57:48;14.20;81.80
38325;DHT22;24126;52.672;13.622;2023-04-16T05:00:15;14.30;81.90
38325;DHT22;24126;52.672;13.622;2023-04-16T05:02:52;14.30;81.90
38325;DHT22;24126;52.672;13.622;2023-04-16T05:05:19;14.30;81.80
38325;DHT22;24126;52.672;13.622;2023-04-16T05:07:46;14.30;81.90
38325;DHT22;24126;52.672;13.622;2023-04-16T05:10:13;14.30;82.00
38325;DHT22;24126;52.672;13.622;2023-04-16T05:12:40;14.30;81.80
38325;DHT22;24126;52.672;13.622;2023-04-16T05:15:07;14.30;81.90
38325;DHT22;24126;52.672;13.622;2023-04-16T05:17:34;14.30;81.90
38325;DHT22;24126;52.672;13.622;2023-04-16T05:20:01;14.30;81.80
38325;DHT22;24126;52.672;13.622;2023-04-16T05:22:28;14.30;81.90
38325;DHT22;24126;52.672;13.622;2023-04-16T05:24:55;14.30;81.80
38325;DHT22;24126;52.672;13.622;2023-04-16T05:27:22;14.20;81.80
38325;DHT22;24126;52.672;13.622;2023-04-16T05:29:49;14.20;81.80
38325;DHT22;24126;52.672;13.622;2023-04-16T05:32:16;14.20;81.80
38325;DHT22;24126;52.672;13.622;2023-04-16T05:34:43;14.20;81.80
38325;DHT22;24126;52.672;13.622;2023-04-16T05:37:10;14.30;81.80
38325;DHT22;24126;52.672;13.622;2023-04-16T05:39:37;14.30;81.90
38325;DHT22;24126;52.672;13.622;2023-04-16T05:42:04;14.20;81.80
38325;DHT22;24126;52.672;13.622;2023-04-16T05:44:32;14.30;81.80
38325;DHT22;24126;52.672;13.622;2023-04-16T05:46:59;14.30;81.80
38325;DHT22;24126;52.672;13.622;2023-04-16T05:49:26;14.30;81.80
38325;DHT22;24126;52.672;13.622;2023-04-16T05:51:53;14.30;81.80
38325;DHT22;24126;52.672;13.622;2023-04-16T05:54:20;14.30;81.90
38325;DHT22;24126;52.672;13.622;2023-04-16T05:56:47;14.30;81.80
38325;DHT22;24126;52.672;13.622;2023-04-16T05:59:14;14.30;81.80
38325;DHT22;24126;52.672;13.622;2023-04-16T06:01:41;14.30;81.90
38325;DHT22;24126;52.672;13.622;2023-04-16T06:04:08;14.30;81.80
38325;DHT22;24126;52.672;13.622;2023-04-16T06:06:35;14.30;81.90
38325;DHT22;24126;52.672;13.622;2023-04-16T06:09:03;14.30;81.70
38325;DHT22;24126;52.672;13.622;2023-04-16T06:11:30;14.30;81.70
38325;DHT22;24126;52.672;13.622;2023-04-16T06:13:57;14.30;81.70
38325;DHT22;24126;52.672;13.622;2023-04-16T06:16:24;14.30;81.70
38325;DHT22;24126;52.672;13.622;2023-04-16T06:18:51;14.30;81.80
38325;DHT22;24126;52.672;13.622;2023-04-16T06:21:18;14.40;81.80
38325;DHT22;24126;52.672;13.622;2023-04-16T06:23:45;14.40;81.80
38325;DHT22;24126;52.672;13.622;2023-04-16T06:26:12;14.40;82.50
38325;DHT22;24126;52.672;13.622;2023-04-16T06:28:39;14.40;81.80
38325;DHT22;24126;52.672;13.622;2023-04-16T06:31:06;14.40;81.80
38325;DHT22;24126;52.672;13.622;2023-04-16T06:33:33;14.40;81.70
38325;DHT22;24126;52.672;13.622;2023-04-16T06:36:01;14.40;81.80
38325;DHT22;24126;52.672;13.622;2023-04-16T06:38:28;14.40;81.70
38325;DHT22;24126;52.672;13.622;2023-04-16T06:40:55;14.40;81.80
38325;DHT22;24126;52.672;13.622;2023-04-16T06:43:23;14.40;81.90
38325;DHT22;24126;52.672;13.622;2023-04-16T06:45:50;14.40;81.90
38325;DHT22;24126;52.672;13.622;2023-04-16T06:48:17;14.40;81.80
38325;DHT22;24126;52.672;13.622;2023-04-16T06:50:44;14.40;81.80
38325;DHT22;24126;52.672;13.622;2023-04-16T06:53:11;14.50;81.80
38325;DHT22;24126;52.672;13.622;2023-04-16T06:55:38;14.50;81.80
38325;DHT22;24126;52.672;13.622;2023-04-16T06:58:05;14.50;81.70
38325;DHT22;24126;52.672;13.622;2023-04-16T07:00:32;14.50;81.80
38325;DHT22;24126;52.672;13.622;2023-04-16T07:02:59;14.50;81.70
38325;DHT22;24126;52.672;13.622;2023-04-16T07:05:28;14.50;81.70
38325;DHT22;24126;52.672;13.622;2023-04-16T07:07:55;14.50;81.80
38325;DHT22;24126;52.672;13.622;2023-04-16T07:10:24;14.60;81.80
38325;DHT22;24126;52.672;13.622;2023-04-16T07:12:51;14.60;81.70
38325;DHT22;24126;52.672;13.622;2023-04-16T07:15:18;14.60;81.70
38325;DHT22;24126;52.672;13.622;2023-04-16T07:17:45;14.60;81.60
38325;DHT22;24126;52.672;13.622;2023-04-16T07:20:12;14.60;81.70
38325;DHT22;24126;52.672;13.622;2023-04-16T07:22:39;14.60;81.70
38325;DHT22;24126;52.672;13.622;2023-04-16T07:25:07;14.60;81.70
38325;DHT22;24126;52.672;13.622;2023-04-16T07:27:34;14.60;81.60
38325;DHT22;24126;52.672;13.622;2023-04-16T07:30:01;14.60;81.70
38325;DHT22;24126;52.672;13.622;2023-04-16T07:32:28;14.60;81.70
38325;DHT22;24126;52.672;13.622;2023-04-16T07:34:55;14.60;81.60
38325;DHT22;24126;52.672;13.622;2023-04-16T07:37:22;14.60;81.70
38325;DHT22;24126;52.672;13.622;2023-04-16T07:39:49;14.60;81.80
38325;DHT22;24126;52.672;13.622;2023-04-16T07:42:17;14.60;81.80
38325;DHT22;24126;52.672;13.622;2023-04-16T07:44:44;14.60;81.80
38325;DHT22;24126;52.672;13.622;2023-04-16T07:47:11;14.70;81.80
38325;DHT22;24126;52.672;13.622;2023-04-16T07:49:38;14.70;81.70
38325;DHT22;24126;52.672;13.622;2023-04-16T07:52:05;14.60;81.60
38325;DHT22;24126;52.672;13.622;2023-04-16T07:54:32;14.70;81.70
38325;DHT22;24126;52.672;13.622;2023-04-16T07:56:59;14.70;81.70
38325;DHT22;24126;52.672;13.622;2023-04-16T07:59:26;14.70;81.60
38325;DHT22;24126;52.672;13.622;2023-04-16T08:01:53;14.60;81.60
38325;DHT22;24126;52.672;13.622;2023-04-16T08:04:20;14.70;81.60
38325;DHT22;24126;52.672;13.622;2023-04-16T08:06:49;14.70;81.70
38325;DHT22;24126;52.672;13.622;2023-04-16T08:09:17;14.70;81.70
38325;DHT22;24126;52.672;13.622;2023-04-16T08:11:44;14.70;81.70
38325;DHT22;24126;52.672;13.622;2023-04-16T08:14:14;14.70;81.70
38325;DHT22;24126;52.672;13.622;2023-04-16T08:16:42;14.70;81.70
38325;DHT22;24126;52.672;13.622;2023-04-16T08:19:09;14.70;81.50
38325;DHT22;24126;52.672;13.622;2023-04-16T08:21:35;14.70;81.40
38325;DHT22;24126;52.672;13.622;2023-04-16T08:24:03;14.70;81.40
38325;DHT22;24126;52.672;13.622;2023-04-16T08:26:30;14.70;81.50
38325;DHT22;24126;52.672;13.622;2023-04-16T08:28:57;14.70;81.70
38325;DHT22;24126;52.672;13.622;2023-04-16T08:31:24;14.70;81.50
38325;DHT22;24126;52.672;13.622;2023-04-16T08:33:51;14.80;81.60
38325;DHT22;24126;52.672;13.622;2023-04-16T08:36:18;14.80;81.60
38325;DHT22;24126;52.672;13.622;2023-04-16T08:38:46;14.80;81.50
38325;DHT22;24126;52.672;13.622;2023-04-16T08:41:13;14.80;81.50
38325;DHT22;24126;52.672;13.622;2023-04-16T08:43:43;14.80;81.50
38325;DHT22;24126;52.672;13.622;2023-04-16T08:46:11;14.80;81.50
38325;DHT22;24126;52.672;13.622;2023-04-16T08:48:38;14.90;81.50
38325;DHT22;24126;52.672;13.622;2023-04-16T08:51:08;14.90;81.40
38325;DHT22;24126;52.672;13.622;2023-04-16T08:53:42;14.90;81.30
38325;DHT22;24126;52.672;13.622;2023-04-16T08:56:10;14.90;81.20
38325;DHT22;24126;52.672;13.622;2023-04-16T08:58:37;14.90;81.30
38325;DHT22;24126;52.672;13.622;2023-04-16T09:01:05;14.90;81.40
38325;DHT22;24126;52.672;13.622;2023-04-16T09:03:32;14.90;81.40
38325;DHT22;24126;52.672;13.622;2023-04-16T09:06:00;14.90;81.30
38325;DHT22;24126;52.672;13.622;2023-04-16T09:08:28;14.90;81.40
38325;DHT22;24126;52.672;13.622;2023-04-16T09:10:55;15.00;81.50
38325;DHT22;24126;52.672;13.622;2023-04-16T09:13:22;15.00;81.50
38325;DHT22;24126;52.672;13.622;2023-04-16T09:15:53;15.00;81.30
38325;DHT22;24126;52.672;13.622;2023-04-16T09:18:22;15.00;82.00
38325;DHT22;24126;52.672;13.622;2023-04-16T09:20:49;15.10;81.40
38325;DHT22;24126;52.672;13.622;2023-04-16T09:23:17;15.10;81.20
38325;DHT22;24126;52.672;13.622;2023-04-16T09:25:44;15.10;81.00
38325;DHT22;24126;52.672;13.622;2023-04-16T09:28:11;15.10;81.10
38325;DHT22;24126;52.672;13.622;2023-04-16T09:30:38;15.10;81.00
38325;DHT22;24126;52.672;13.622;2023-04-16T09:33:13;15.10;81.00
38325;DHT22;24126;52.672;13.622;2023-04-16T09:35:47;15.10;80.90
38325;DHT22;24126;52.672;13.622;2023-04-16T09:38:15;15.10;81.10
38325;DHT22;24126;52.672;13.622;2023-04-16T09:40:42;15.10;81.10
38325;DHT22;24126;52.672;13.622;2023-04-16T09:43:12;15.10;81.30
38325;DHT22;24126;52.672;13.622;2023-04-16T09:45:50;15.10;81.20
38325;DHT22;24126;52.672;13.622;2023-04-16T09:48:38;15.20;81.40
38325;DHT22;24126;52.672;13.622;2023-04-16T09:51:05;15.20;81.30
38325;DHT22;24126;52.672;13.622;2023-04-16T09:53:32;15.30;81.00
38325;DHT22;24126;52.672;13.622;2023-04-16T09:56:00;15.30;80.80
38325;DHT22;24126;52.672;13.622;2023-04-16T09:58:27;15.30;80.80
38325;DHT22;24126;52.672;13.622;2023-04-16T10:01:01;15.30;80.80
38325;DHT22;24126;52.672;13.622;2023-04-16T10:03:28;15.40;80.80
38325;DHT22;24126;52.672;13.622;2023-04-16T10:06:00;15.40;80.80
38325;DHT22;24126;52.672;13.622;2023-04-16T10:08:27;15.40;80.90
38325;DHT22;24126;52.672;13.622;2023-04-16T10:10:54;15.60;81.10
38325;DHT22;24126;52.672;13.622;2023-04-16T10:13:22;15.70;81.90
38325;DHT22;24126;52.672;13.622;2023-04-16T10:15:55;15.80;81.40
38325;DHT22;24126;52.672;13.622;2023-04-16T10:18:23;16.00;80.90
38325;DHT22;24126;52.672;13.622;2023-04-16T10:20:51;16.10;80.20
38325;DHT22;24126;52.672;13.622;2023-04-16T10:23:20;16.20;79.90
38325;DHT22;24126;52.672;13.622;2023-04-16T10:25:47;16.20;79.70
38325;DHT22;24126;52.672;13.622;2023-04-16T10:28:15;16.30;79.50
38325;DHT22;24126;52.672;13.622;2023-04-16T10:30:49;16.20;79.30
38325;DHT22;24126;52.672;13.622;2023-04-16T10:33:21;16.30;79.50
38325;DHT22;24126;52.672;13.622;2023-04-16T10:35:49;16.30;79.50
38325;DHT22;24126;52.672;13.622;2023-04-16T10:38:26;16.40;80.00
38325;DHT22;24126;52.672;13.622;2023-04-16T10:41:00;16.40;79.30
38325;DHT22;24126;52.672;13.622;2023-04-16T10:43:29;16.50;78.90
38325;DHT22;24126;52.672;13.622;2023-04-16T10:45:56;16.50;78.40
38325;DHT22;24126;52.672;13.622;2023-04-16T10:48:23;16.60;78.60
38325;DHT22;24126;52.672;13.622;2023-04-16T10:50:52;16.60;78.50
38325;DHT22;24126;52.672;13.622;2023-04-16T10:53:24;16.70;78.50
38325;DHT22;24126;52.672;13.622;2023-04-16T10:55:58;16.70;78.40
38325;DHT22;24126;52.672;13.622;2023-04-16T10:58:36;16.70;78.10
38325;DHT22;24126;52.672;13.622;2023-04-16T11:01:10;16.80;77.90
38325;DHT22;24126;52.672;13.622;2023-04-16T11:03:47;16.80;77.60
38325;DHT22;24126;52.672;13.622;2023-04-16T11:06:15;16.80;77.90
38325;DHT22;24126;52.672;13.622;2023-04-16T11:08:45;16.80;77.30
38325;DHT22;24126;52.672;13.622;2023-04-16T11:11:12;16.70;77.00
38325;DHT22;24126;52.672;13.622;2023-04-16T11:13:41;16.60;77.20
38325;DHT22;24126;52.672;13.622;2023-04-16T11:16:09;16.50;77.30
38325;DHT22;24126;52.672;13.622;2023-04-16T11:18:37;16.50;77.30
38325;DHT22;24126;52.672;13.622;2023-04-16T11:21:08;16.40;77.30
38325;DHT22;24126;52.672;13.622;2023-04-16T11:23:45;16.30;77.40
38325;DHT22;24126;52.672;13.622;2023-04-16T11:26:26;16.30;77.30
38325;DHT22;24126;52.672;13.622;2023-04-16T11:28:53;16.20;77.50
38325;DHT22;24126;52.672;13.622;2023-04-16T11:31:22;16.20;77.60
38325;DHT22;24126;52.672;13.622;2023-04-16T11:33:49;16.10;77.50
38325;DHT22;24126;52.672;13.622;2023-04-16T11:36:17;16.10;77.80
38325;DHT22;24126;52.672;13.622;2023-04-16T11:38:44;16.10;77.90
38325;DHT22;24126;52.672;13.622;2023-04-16T11:41:17;16.10;77.90
38325;DHT22;24126;52.672;13.622;2023-04-16T11:43:44;16.10;77.90
38325;DHT22;24126;52.672;13.622;2023-04-16T11:46:11;16.00;77.90
38325;DHT22;24126;52.672;13.622;2023-04-16T11:48:48;16.00;77.80
38325;DHT22;24126;52.672;13.622;2023-04-16T11:51:15;16.00;77.90
38325;DHT22;24126;52.672;13.622;2023-04-16T11:53:52;15.90;78.00
38325;DHT22;24126;52.672;13.622;2023-04-16T11:56:26;15.90;78.10
38325;DHT22;24126;52.672;13.622;2023-04-16T11:59:13;15.90;78.20
38325;DHT22;24126;52.672;13.622;2023-04-16T12:01:40;15.90;78.10
38325;DHT22;24126;52.672;13.622;2023-04-16T12:04:10;15.80;77.90
38325;DHT22;24126;52.672;13.622;2023-04-16T12:06:37;15.80;78.10
38325;DHT22;24126;52.672;13.622;2023-04-16T12:09:23;15.80;78.10
38325;DHT22;24126;52.672;13.622;2023-04-16T12:11:50;15.80;78.00
38325;DHT22;24126;52.672;13.622;2023-04-16T12:14:17;15.80;77.80
38325;DHT22;24126;52.672;13.622;2023-04-16T12:16:44;15.70;77.80
38325;DHT22;24126;52.672;13.622;2023-04-16T12:19:12;15.70;77.90
38325;DHT22;24126;52.672;13.622;2023-04-16T12:21:42;15.70;78.00
38325;DHT22;24126;52.672;13.622;2023-04-16T12:24:11;15.70;77.90
38325;DHT22;24126;52.672;13.622;2023-04-16T12:26:39;15.70;78.00
38325;DHT22;24126;52.672;13.622;2023-04-16T12:29:20;15.70;77.90
38325;DHT22;24126;52.672;13.622;2023-04-16T12:31:48;15.70;77.90
38325;DHT22;24126;52.672;13.622;2023-04-16T12:34:16;15.70;77.90
38325;DHT22;24126;52.672;13.622;2023-04-16T12:36:43;15.60;77.80
38325;DHT22;24126;52.672;13.622;2023-04-16T12:39:11;15.70;77.90
38325;DHT22;24126;52.672;13.622;2023-04-16T12:41:39;15.70;77.90
38325;DHT22;24126;52.672;13.622;2023-04-16T12:44:07;15.70;78.00
38325;DHT22;24126;52.672;13.622;2023-04-16T12:46:40;15.70;77.80
38325;DHT22;24126;52.672;13.622;2023-04-16T12:49:10;15.70;77.80
38325;DHT22;24126;52.672;13.622;2023-04-16T12:51:37;15.70;78.00
38325;DHT22;24126;52.672;13.622;2023-04-16T12:54:07;15.70;77.80
38325;DHT22;24126;52.672;13.622;2023-04-16T12:56:34;15.80;77.80
38325;DHT22;24126;52.672;13.622;2023-04-16T12:59:01;15.80;77.90
38325;DHT22;24126;52.672;13.622;2023-04-16T13:01:28;15.80;78.00
38325;DHT22;24126;52.672;13.622;2023-04-16T13:03:55;15.90;77.70
38325;DHT22;24126;52.672;13.622;2023-04-16T13:06:22;15.90;77.50
38325;DHT22;24126;52.672;13.622;2023-04-16T13:08:49;15.90;77.10
38325;DHT22;24126;52.672;13.622;2023-04-16T13:11:16;15.90;77.40
38325;DHT22;24126;52.672;13.622;2023-04-16T13:13:43;16.00;77.30
38325;DHT22;24126;52.672;13.622;2023-04-16T13:16:10;16.00;77.30
38325;DHT22;24126;52.672;13.622;2023-04-16T13:18:37;16.10;77.10
38325;DHT22;24126;52.672;13.622;2023-04-16T13:21:05;16.20;77.10
38325;DHT22;24126;52.672;13.622;2023-04-16T13:23:33;16.20;76.70
38325;DHT22;24126;52.672;13.622;2023-04-16T13:26:00;16.30;76.70
38325;DHT22;24126;52.672;13.622;2023-04-16T13:28:27;16.30;76.30
38325;DHT22;24126;52.672;13.622;2023-04-16T13:30:54;16.30;76.40
38325;DHT22;24126;52.672;13.622;2023-04-16T13:33:21;16.30;76.40
38325;DHT22;24126;52.672;13.622;2023-04-16T13:35:48;16.30;76.30
38325;DHT22;24126;52.672;13.622;2023-04-16T13:38:16;16.30;76.20
38325;DHT22;24126;52.672;13.622;2023-04-16T13:40:43;16.40;76.10
38325;DHT22;24126;52.672;13.622;2023-04-16T13:43:10;16.40;76.50
38325;DHT22;24126;52.672;13.622;2023-04-16T13:45:38;16.50;76.30
38325;DHT22;24126;52.672;13.622;2023-04-16T13:48:06;16.60;75.90
38325;DHT22;24126;52.672;13.622;2023-04-16T13:50:33;16.60;75.50
38325;DHT22;24126;52.672;13.622;2023-04-16T13:53:00;16.50;75.50
38325;DHT22;24126;52.672;13.622;2023-04-16T13:55:29;16.50;75.70
38325;DHT22;24126;52.672;13.622;2023-04-16T13:57:56;16.50;75.80
38325;DHT22;24126;52.672;13.622;2023-04-16T14:00:24;16.40;75.80
38325;DHT22;24126;52.672;13.622;2023-04-16T14:02:52;16.40;75.70
38325;DHT22;24126;52.672;13.622;2023-04-16T14:05:19;16.40;75.80
38325;DHT22;24126;52.672;13.622;2023-04-16T14:07:47;16.30;75.80
38325;DHT22;24126;52.672;13.622;2023-04-16T14:10:15;16.30;75.70
38325;DHT22;24126;52.672;13.622;2023-04-16T14:12:42;16.20;75.90
38325;DHT22;24126;52.672;13.622;2023-04-16T14:15:10;16.20;76.00
38325;DHT22;24126;52.672;13.622;2023-04-16T14:17:42;16.20;75.90
38325;DHT22;24126;52.672;13.622;2023-04-16T14:20:10;16.10;75.90
38325;DHT22;24126;52.672;13.622;2023-04-16T14:22:38;16.00;76.20
38325;DHT22;24126;52.672;13.622;2023-04-16T14:25:07;16.00;76.30
38325;DHT22;24126;52.672;13.622;2023-04-16T14:27:34;16.00;76.30
38325;DHT22;24126;52.672;13.622;2023-04-16T14:30:01;15.90;76.20
38325;DHT22;24126;52.672;13.622;2023-04-16T14:32:28;16.00;76.20
38325;DHT22;24126;52.672;13.622;2023-04-16T14:34:56;15.90;76.30
38325;DHT22;24126;52.672;13.622;2023-04-16T14:37:23;15.90;76.40
38325;DHT22;24126;52.672;13.622;2023-04-16T14:39:51;15.90;76.40
38325;DHT22;24126;52.672;13.622;2023-04-16T14:42:18;15.80;76.50
38325;DHT22;24126;52.672;13.622;2023-04-16T14:44:45;15.80;76.60
38325;DHT22;24126;52.672;13.622;2023-04-16T14:47:12;15.80;76.70
38325;DHT22;24126;52.672;13.622;2023-04-16T14:49:39;15.80;76.80
38325;DHT22;24126;52.672;13.622;2023-04-16T14:52:06;15.80;77.00
38325;DHT22;24126;52.672;13.622;2023-04-16T14:54:34;15.80;77.00
38325;DHT22;24126;52.672;13.622;2023-04-16T14:57:01;15.80;77.00
38325;DHT22;24126;52.672;13.622;2023-04-16T14:59:28;15.80;77.00
38325;DHT22;24126;52.672;13.622;2023-04-16T15:01:56;15.80;77.10
38325;DHT22;24126;52.672;13.622;2023-04-16T15:04:24;15.80;77.20
38325;DHT22;24126;52.672;13.622;2023-04-16T15:06:51;15.80;77.00
38325;DHT22;24126;52.672;13.622;2023-04-16T15:09:18;15.80;77.10
38325;DHT22;24126;52.672;13.622;2023-04-16T15:11:46;15.80;77.20
38325;DHT22;24126;52.672;13.622;2023-04-16T15:14:13;15.80;77.10
38325;DHT22;24126;52.672;13.622;2023-04-16T15:16:40;15.80;77.10
38325;DHT22;24126;52.672;13.622;2023-04-16T15:19:07;15.80;77.10
38325;DHT22;24126;52.672;13.622;2023-04-16T15:21:34;15.80;77.10